createdAt,value
2023-01-02T00:06:13.596Z,4.07
2023-01-02T00:12:55.951Z,3.30
2023-01-02T00:19:39.369Z,2.40
2023-01-02T00:26:22.252Z,3.00
2023-01-02T00:33:05.046Z,2.92
2023-01-02T00:39:47.410Z,2.35
2023-01-02T00:46:29.712Z,3.03
2023-01-02T00:53:12.534Z,2.60
2023-01-02T00:59:54.959Z,3.90
2023-01-02T01:06:37.361Z,2.92
2023-01-02T01:13:19.803Z,2.60
2023-01-02T01:20:02.074Z,2.95
2023-01-02T01:26:44.398Z,2.60
2023-01-02T01:33:26.682Z,3.10
2023-01-02T01:40:26.846Z,3.30
2023-01-02T01:47:22.734Z,3.47
2023-01-02T01:54:11.132Z,2.80
2023-01-02T02:00:53.552Z,2.63
2023-01-02T02:07:42.546Z,9.43
2023-01-02T02:14:24.885Z,3.33
2023-01-02T02:21:28.237Z,3.10
2023-01-02T02:28:42.614Z,2.67
2023-01-02T02:35:49.298Z,9.85
2023-01-02T02:42:47.700Z,3.33
2023-01-02T02:50:00.630Z,3.33
2023-01-02T02:56:44.067Z,4.20
2023-01-02T03:03:26.679Z,4.88
2023-01-02T03:10:21.166Z,4.45
2023-01-02T03:17:12.050Z,4.90
2023-01-02T03:23:58.849Z,5.00
2023-01-02T03:30:42.376Z,4.38
2023-01-02T03:37:30.289Z,4.60
2023-01-02T03:44:14.089Z,4.72
2023-01-02T03:51:00.913Z,4.43
2023-01-02T03:57:58.325Z,4.93
2023-01-02T04:04:53.457Z,4.65
2023-01-02T04:11:38.715Z,6.40
2023-01-02T04:18:23.400Z,5.18
2023-01-02T04:25:15.358Z,5.40
2023-01-02T04:32:11.283Z,4.72
2023-01-02T04:38:53.643Z,4.15
2023-01-02T04:45:35.910Z,4.65
2023-01-02T04:52:18.242Z,3.20
2023-01-02T04:59:00.696Z,2.13
2023-01-02T05:05:43.988Z,2.30
2023-01-02T05:12:26.294Z,2.58
2023-01-02T05:19:08.697Z,2.10
2023-01-02T05:25:51.000Z,2.47
2023-01-02T05:32:33.668Z,2.08
2023-01-02T05:39:19.919Z,2.10
2023-01-02T05:46:14.272Z,2.30
2023-01-02T05:52:59.091Z,1.83
2023-01-02T05:59:41.365Z,1.85
2023-01-02T06:06:26.714Z,2.38
2023-01-02T06:13:08.993Z,2.55
2023-01-02T06:19:54.102Z,2.55
2023-01-02T06:26:36.861Z,2.20
2023-01-02T06:33:19.170Z,2.35
2023-01-02T06:40:01.469Z,2.42
2023-01-02T06:46:43.942Z,2.22
2023-01-02T06:53:26.988Z,2.90
2023-01-02T07:00:10.054Z,2.20
2023-01-02T07:06:52.377Z,2.10
2023-01-02T07:13:34.762Z,2.25
2023-01-02T07:20:17.223Z,2.78
2023-01-02T07:26:59.791Z,2.50
2023-01-02T07:33:42.326Z,2.83
2023-01-02T07:40:28.743Z,2.83
2023-01-02T07:47:14.390Z,2.78
2023-01-02T07:53:56.887Z,3.85
2023-01-02T08:00:39.251Z,2.75
2023-01-02T08:07:23.113Z,2.88
2023-01-02T08:14:05.484Z,4.60
2023-01-02T08:20:47.757Z,3.22
2023-01-02T08:27:30.597Z,3.78
2023-01-02T08:34:14.842Z,9.48
2023-01-02T08:41:00.302Z,5.22
2023-01-02T08:47:42.973Z,5.32
2023-01-02T08:54:25.278Z,4.40
2023-01-02T09:01:07.749Z,5.07
2023-01-02T09:07:50.092Z,4.80
2023-01-02T09:14:32.793Z,5.25
2023-01-02T09:21:15.302Z,4.50
2023-01-02T09:27:58.035Z,5.22
2023-01-02T09:34:40.373Z,5.05
2023-01-02T09:41:52.221Z,4.57
2023-01-02T09:48:36.580Z,7.20
2023-01-02T09:55:45.072Z,4.65
2023-01-02T10:03:07.942Z,4.93
2023-01-02T10:09:55.059Z,4.35
2023-01-02T10:16:42.828Z,4.07
2023-01-02T10:23:33.348Z,5.03
2023-01-02T10:30:41.982Z,4.60
2023-01-02T10:37:26.697Z,4.22
2023-01-02T10:44:27.145Z,4.70
2023-01-02T10:51:14.847Z,3.72
2023-01-02T10:58:06.317Z,4.40
2023-01-02T11:04:51.898Z,3.55
2023-01-02T11:11:34.197Z,3.55
2023-01-02T11:18:27.881Z,3.33
2023-01-02T11:25:25.533Z,3.53
2023-01-02T11:32:07.979Z,2.70
2023-01-02T11:38:53.777Z,2.72
2023-01-02T11:45:37.346Z,3.38
2023-01-02T11:52:26.125Z,2.80
2023-01-02T11:59:22.871Z,2.45
2023-01-02T12:06:34.127Z,2.38
2023-01-02T12:13:49.802Z,2.80
2023-01-02T12:21:01.560Z,2.42
2023-01-02T12:28:00.713Z,2.75
2023-01-02T12:34:52.355Z,3.38
2023-01-02T12:42:02.517Z,3.40
2023-01-02T12:49:00.290Z,3.60
2023-01-02T12:56:17.760Z,2.53
2023-01-02T13:03:35.219Z,3.40
2023-01-02T13:10:22.245Z,3.00
2023-01-02T13:17:16.392Z,3.92
2023-01-02T13:24:05.328Z,3.35
2023-01-02T13:30:50.439Z,2.88
2023-01-02T13:37:34.260Z,3.08
2023-01-02T13:44:16.944Z,2.80
2023-01-02T13:51:13.047Z,3.30
2023-01-02T13:58:17.341Z,3.47
2023-01-02T14:04:59.656Z,3.05
2023-01-02T14:11:55.322Z,2.88
2023-01-02T14:18:44.378Z,4.38
2023-01-02T14:25:31.436Z,3.60
2023-01-02T14:32:22.230Z,3.10
2023-01-02T14:39:30.315Z,3.45
2023-01-02T14:46:22.099Z,3.78
2023-01-02T14:53:19.586Z,3.60
2023-01-02T15:00:11.680Z,3.53
2023-01-02T15:07:09.991Z,3.47
2023-01-02T15:14:03.894Z,3.72
2023-01-02T15:20:55.222Z,3.88
2023-01-02T15:27:38.285Z,3.42
2023-01-02T15:34:30.694Z,2.40
2023-01-02T15:41:20.262Z,2.28
2023-01-02T15:48:03.930Z,3.08
2023-01-02T15:54:47.519Z,2.20
2023-01-02T16:01:30.150Z,2.88
2023-01-02T16:08:27.034Z,2.33
2023-01-02T16:15:09.973Z,2.47
2023-01-02T16:22:01.902Z,2.60
2023-01-02T16:28:44.526Z,3.28
2023-01-02T16:35:34.160Z,3.15
2023-01-02T16:42:37.320Z,2.50
2023-01-02T16:49:40.622Z,2.42
2023-01-02T16:56:23.923Z,3.00
2023-01-02T17:03:06.359Z,2.65
2023-01-02T17:09:49.033Z,2.72
2023-01-02T17:16:31.358Z,2.92
2023-01-02T17:23:14.045Z,2.58
2023-01-02T17:29:56.376Z,3.00
2023-01-02T17:36:40.259Z,2.60
2023-01-02T17:43:22.763Z,2.85
2023-01-02T17:50:06.298Z,3.05
2023-01-02T17:56:48.625Z,2.53
2023-01-02T18:03:32.266Z,2.67
2023-01-02T18:10:20.639Z,3.13
2023-01-02T18:17:30.377Z,2.67
2023-01-02T18:24:32.059Z,2.17
2023-01-02T18:31:16.936Z,1.73
2023-01-02T18:38:06.267Z,1.50
2023-01-02T18:44:49.294Z,1.42
2023-01-02T18:51:33.462Z,0.82
2023-01-02T18:58:32.891Z,0.90
2023-01-02T19:05:31.912Z,0.90
2023-01-02T19:12:33.114Z,0.80
2023-01-02T19:19:17.527Z,1.08
2023-01-02T19:26:33.742Z,0.90
2023-01-02T19:33:40.668Z,1.13
2023-01-02T19:40:23.930Z,1.00
2023-01-02T19:47:06.241Z,1.20
2023-01-02T19:53:48.724Z,1.20
2023-01-02T20:00:31.919Z,1.38
2023-01-02T20:07:14.331Z,1.50
2023-01-02T20:13:56.676Z,1.10
2023-01-02T20:20:39.037Z,1.10
2023-01-02T20:27:22.142Z,1.00
2023-01-02T20:34:04.799Z,0.80
2023-01-02T20:40:47.474Z,1.40
2023-01-02T20:47:29.781Z,1.27
2023-01-02T20:54:12.035Z,0.95
2023-01-02T21:00:54.311Z,1.00
2023-01-02T21:08:08.656Z,0.77
2023-01-02T21:15:33.792Z,1.30
2023-01-02T21:22:16.055Z,1.60
2023-01-02T21:29:03.488Z,1.30
2023-01-02T21:35:48.180Z,1.40
2023-01-02T21:42:30.476Z,1.40
2023-01-02T21:49:12.979Z,1.50
2023-01-02T21:55:55.248Z,1.50
2023-01-02T22:02:38.988Z,1.50
2023-01-02T22:09:21.684Z,1.60
2023-01-02T22:16:04.214Z,1.50
2023-01-02T22:22:46.516Z,1.30
2023-01-02T22:30:09.676Z,1.50
2023-01-02T22:36:36.125Z,1.38
2023-01-02T22:43:24.402Z,1.23
2023-01-02T22:50:12.114Z,1.30
2023-01-02T22:56:54.763Z,1.23
2023-01-02T23:03:40.211Z,1.10
2023-01-02T23:10:22.843Z,1.23
2023-01-02T23:17:23.469Z,1.10
2023-01-02T23:24:07.230Z,1.20
2023-01-02T23:30:51.141Z,1.20
2023-01-02T23:37:48.925Z,1.40
2023-01-02T23:44:31.241Z,1.33
2023-01-02T23:51:13.649Z,1.45
2023-01-02T23:57:55.942Z,1.48
